VVC5433 MKJS-TNCM
Flight info
| Callsign | VVC5433 |
|---|---|
| Flight time | 1h 52m |
| Altitude | 37000 |
| Route | ROSTO2 ROSTO DCT SAVEM DCT KEBET DCT PAP DCT ETBOD DCT ANTEX DCT GOUDA |
| Aircraft | A20N/M-SDE2E3FGHIRWXY/LB1 |
Departure
| Time | 2026-05-05 22:54 |
|---|---|
| Airport | Sangster International Airport (MKJS) |
Arrival
| Time | 2026-05-06 00:46 |
|---|---|
| Airport | Princess Juliana International Airport (TNCM) |
| Time | Latitude | Longitude | Altitude | Speed | Heading |
|---|---|---|---|---|---|
| 2026-05-05 22:22 | 18.50019 | -77.91667 | 22 ft | 0 kts | 156° |
| 2026-05-05 22:22 | 18.50018 | -77.91667 | 22 ft | 0 kts | 156° |
| 2026-05-05 22:42 | 18.50017 | -77.91667 | 22 ft | 0 kts | 156° |
| 2026-05-05 22:43 | 18.50018 | -77.91667 | 22 ft | 1 kts | 156° |
| 2026-05-05 22:43 | 18.50029 | -77.91672 | 22 ft | 2 kts | 156° |
| 2026-05-05 22:43 | 18.50047 | -77.91680 | 22 ft | 3 kts | 156° |
| 2026-05-05 22:44 | 18.50065 | -77.91689 | 22 ft | 3 kts | 156° |
| 2026-05-05 22:44 | 18.50079 | -77.91695 | 22 ft | 0 kts | 156° |
| 2026-05-05 22:44 | 18.50075 | -77.91693 | 22 ft | 3 kts | 156° |
| 2026-05-05 22:45 | 18.50072 | -77.91692 | 22 ft | 4 kts | 156° |
| 2026-05-05 22:48 | 18.50057 | -77.91689 | 22 ft | 4 kts | 202° |
| 2026-05-05 22:48 | 18.50017 | -77.91734 | 22 ft | 13 kts | 239° |
| 2026-05-05 22:48 | 18.49965 | -77.91845 | 22 ft | 16 kts | 243° |
| 2026-05-05 22:48 | 18.49941 | -77.91902 | 22 ft | 9 kts | 246° |
| 2026-05-05 22:49 | 18.49904 | -77.91992 | 22 ft | 11 kts | 246° |
| 2026-05-05 22:49 | 18.49895 | -77.92014 | 22 ft | 5 kts | 246° |
| 2026-05-05 22:49 | 18.49869 | -77.92078 | 22 ft | 14 kts | 246° |
| 2026-05-05 22:49 | 18.49826 | -77.92168 | 22 ft | 11 kts | 242° |
| 2026-05-05 22:50 | 18.49805 | -77.92210 | 22 ft | 10 kts | 245° |
| 2026-05-05 22:50 | 18.49789 | -77.92271 | 22 ft | 11 kts | 289° |
| 2026-05-05 22:50 | 18.49787 | -77.92368 | 22 ft | 15 kts | 262° |
| 2026-05-05 22:50 | 18.49813 | -77.92429 | 22 ft | 6 kts | 330° |
| 2026-05-05 22:51 | 18.49820 | -77.92432 | 22 ft | 0 kts | 334° |
| 2026-05-05 22:52 | 18.49827 | -77.92436 | 22 ft | 5 kts | 334° |
| 2026-05-05 22:52 | 18.49878 | -77.92454 | 22 ft | 7 kts | 358° |
| 2026-05-05 22:52 | 18.49900 | -77.92415 | 22 ft | 10 kts | 76° |
| 2026-05-05 22:52 | 18.49905 | -77.92402 | 22 ft | 0 kts | 66° |
| 2026-05-05 22:53 | 18.49928 | -77.92346 | 22 ft | 28 kts | 66° |
| 2026-05-05 22:53 | 18.50122 | -77.91900 | 22 ft | 104 kts | 65° |
| 2026-05-05 22:53 | 18.50508 | -77.91014 | 38 ft | 163 kts | 65° |
| 2026-05-05 22:54 | 18.51045 | -77.89780 | 303 ft | 205 kts | 65° |
| 2026-05-05 22:54 | 18.51752 | -77.88522 | 1582 ft | 197 kts | 53° |
| 2026-05-05 22:54 | 18.52847 | -77.87577 | 2373 ft | 218 kts | 27° |
| 2026-05-05 22:54 | 18.54381 | -77.87208 | 2903 ft | 237 kts | 12° |
| 2026-05-05 22:55 | 18.55996 | -77.86674 | 3430 ft | 247 kts | 26° |
| 2026-05-05 22:55 | 18.57424 | -77.85656 | 3942 ft | 250 kts | 48° |
| 2026-05-05 22:55 | 18.58220 | -77.84042 | 4468 ft | 253 kts | 78° |
| 2026-05-05 22:55 | 18.58371 | -77.82172 | 5016 ft | 256 kts | 88° |
| 2026-05-05 22:56 | 18.58408 | -77.80306 | 5536 ft | 261 kts | 89° |
| 2026-05-05 22:56 | 18.58418 | -77.78377 | 6064 ft | 264 kts | 89° |
| 2026-05-05 22:56 | 18.58422 | -77.76433 | 6590 ft | 267 kts | 89° |
| 2026-05-05 22:56 | 18.58424 | -77.74461 | 7138 ft | 269 kts | 90° |
| 2026-05-05 22:57 | 18.58424 | -77.72469 | 7767 ft | 274 kts | 90° |
| 2026-05-05 22:57 | 18.58423 | -77.70465 | 8392 ft | 276 kts | 90° |
| 2026-05-05 22:57 | 18.58420 | -77.68425 | 9019 ft | 280 kts | 90° |
| 2026-05-05 22:57 | 18.58417 | -77.66363 | 9646 ft | 284 kts | 90° |
| 2026-05-05 22:58 | 18.58414 | -77.64260 | 10276 ft | 290 kts | 90° |
| 2026-05-05 22:58 | 18.58409 | -77.62086 | 10909 ft | 302 kts | 90° |
| 2026-05-05 22:58 | 18.58401 | -77.59852 | 11533 ft | 314 kts | 90° |
| 2026-05-05 22:58 | 18.58394 | -77.57498 | 12164 ft | 326 kts | 89° |
| 2026-05-05 22:59 | 18.58384 | -77.55066 | 12788 ft | 335 kts | 90° |
| 2026-05-05 22:59 | 18.58250 | -77.52574 | 13376 ft | 346 kts | 94° |
| 2026-05-05 22:59 | 18.57949 | -77.50028 | 13969 ft | 356 kts | 98° |
| 2026-05-05 22:59 | 18.57528 | -77.47427 | 14569 ft | 362 kts | 96° |
| 2026-05-05 23:00 | 18.58105 | -77.42085 | 15830 ft | 371 kts | 82° |
| 2026-05-05 23:00 | 18.58300 | -77.39383 | 16452 ft | 375 kts | 88° |
| 2026-05-05 23:00 | 18.58335 | -77.36629 | 17078 ft | 378 kts | 90° |
| 2026-05-05 23:01 | 18.58333 | -77.33846 | 17705 ft | 381 kts | 90° |
| 2026-05-05 23:01 | 18.58324 | -77.31039 | 18333 ft | 384 kts | 90° |
| 2026-05-05 23:01 | 18.58313 | -77.28167 | 18970 ft | 388 kts | 90° |
| 2026-05-05 23:01 | 18.58302 | -77.25337 | 19591 ft | 390 kts | 90° |
| 2026-05-05 23:02 | 18.58290 | -77.22452 | 20220 ft | 393 kts | 90° |
| 2026-05-05 23:02 | 18.58277 | -77.19454 | 20870 ft | 395 kts | 90° |
| 2026-05-05 23:02 | 18.58268 | -77.17427 | 21307 ft | 396 kts | 89° |
| 2026-05-05 23:02 | 18.58254 | -77.14511 | 21935 ft | 397 kts | 89° |
| 2026-05-05 23:03 | 18.58239 | -77.11547 | 22572 ft | 397 kts | 89° |
| 2026-05-05 23:03 | 18.58224 | -77.08425 | 23243 ft | 397 kts | 89° |
| 2026-05-05 23:03 | 18.58209 | -77.05494 | 23873 ft | 396 kts | 89° |
| 2026-05-05 23:03 | 18.58194 | -77.02668 | 24483 ft | 394 kts | 88° |
| 2026-05-05 23:04 | 18.58178 | -76.99693 | 25127 ft | 392 kts | 88° |
| 2026-05-05 23:04 | 18.58161 | -76.96823 | 25752 ft | 389 kts | 88° |
| 2026-05-05 23:04 | 18.58146 | -76.93979 | 26377 ft | 386 kts | 88° |
| 2026-05-05 23:04 | 18.58131 | -76.91159 | 27001 ft | 382 kts | 87° |
| 2026-05-05 23:05 | 18.58115 | -76.88392 | 27619 ft | 377 kts | 87° |
| 2026-05-05 23:05 | 18.58097 | -76.85630 | 28245 ft | 371 kts | 87° |
| 2026-05-05 23:05 | 18.58080 | -76.82947 | 28862 ft | 364 kts | 86° |
| 2026-05-05 23:05 | 18.58062 | -76.80303 | 29481 ft | 356 kts | 86° |
| 2026-05-05 23:06 | 18.58046 | -76.77652 | 29591 ft | 365 kts | 86° |
| 2026-05-05 23:06 | 18.58034 | -76.74929 | 29596 ft | 377 kts | 86° |
| 2026-05-05 23:06 | 18.58020 | -76.72129 | 29602 ft | 388 kts | 86° |
| 2026-05-05 23:06 | 18.58003 | -76.69259 | 29797 ft | 394 kts | 86° |
| 2026-05-05 23:07 | 18.57983 | -76.66331 | 29924 ft | 403 kts | 86° |
| 2026-05-05 23:07 | 18.57964 | -76.63341 | 29958 ft | 414 kts | 86° |
| 2026-05-05 23:07 | 18.57925 | -76.57329 | 29969 ft | 435 kts | 87° |
| 2026-05-05 23:08 | 18.57881 | -76.50834 | 29969 ft | 455 kts | 87° |
| 2026-05-05 23:08 | 18.57829 | -76.44028 | 29969 ft | 474 kts | 87° |
| 2026-05-05 23:09 | 18.57769 | -76.36908 | 29970 ft | 493 kts | 87° |
| 2026-05-05 23:09 | 18.57702 | -76.29420 | 29970 ft | 510 kts | 87° |
| 2026-05-05 23:10 | 18.57666 | -76.25568 | 30184 ft | 510 kts | 87° |
| 2026-05-05 23:10 | 18.57633 | -76.22202 | 30218 ft | 515 kts | 87° |
| 2026-05-05 23:10 | 18.57595 | -76.18707 | 31075 ft | 502 kts | 87° |
| 2026-05-05 23:10 | 18.57559 | -76.14947 | 30662 ft | 515 kts | 87° |
| 2026-05-05 23:11 | 18.57518 | -76.11274 | 31850 ft | 497 kts | 87° |
| 2026-05-05 23:11 | 18.57480 | -76.07522 | 31333 ft | 514 kts | 87° |
| 2026-05-05 23:11 | 18.57446 | -76.03743 | 32210 ft | 497 kts | 87° |
| 2026-05-05 23:11 | 18.57405 | -76.00063 | 32539 ft | 500 kts | 87° |
| 2026-05-05 23:12 | 18.57370 | -75.96305 | 31943 ft | 514 kts | 87° |
| 2026-05-05 23:12 | 18.57328 | -75.92725 | 33413 ft | 489 kts | 86° |
| 2026-05-05 23:12 | 18.57283 | -75.89149 | 33536 ft | 485 kts | 86° |
| 2026-05-05 23:12 | 18.57248 | -75.85594 | 33801 ft | 485 kts | 87° |
| 2026-05-05 23:13 | 18.57224 | -75.82023 | 33938 ft | 489 kts | 88° |
| 2026-05-05 23:13 | 18.57164 | -75.78476 | 33976 ft | 480 kts | 87° |
| 2026-05-05 23:13 | 18.57074 | -75.71428 | 33988 ft | 479 kts | 86° |
| 2026-05-05 23:14 | 18.56996 | -75.64415 | 33990 ft | 478 kts | 86° |
| 2026-05-05 23:14 | 18.56909 | -75.57383 | 33991 ft | 483 kts | 86° |
| 2026-05-05 23:15 | 18.56816 | -75.50275 | 33992 ft | 485 kts | 86° |
| 2026-05-05 23:15 | 18.56720 | -75.43135 | 33993 ft | 487 kts | 86° |
| 2026-05-05 23:16 | 18.56621 | -75.36022 | 33994 ft | 487 kts | 86° |
| 2026-05-05 23:16 | 18.56520 | -75.28857 | 33995 ft | 489 kts | 86° |
| 2026-05-05 23:17 | 18.56416 | -75.21666 | 33994 ft | 491 kts | 87° |
| 2026-05-05 23:17 | 18.56308 | -75.14505 | 33993 ft | 492 kts | 87° |
| 2026-05-05 23:18 | 18.56211 | -75.08154 | 33993 ft | 494 kts | 87° |
| 2026-05-05 23:18 | 18.56094 | -75.00787 | 33995 ft | 494 kts | 87° |
| 2026-05-05 23:19 | 18.55976 | -74.93426 | 33995 ft | 494 kts | 87° |
| 2026-05-05 23:19 | 18.55856 | -74.86149 | 33995 ft | 494 kts | 87° |
| 2026-05-05 23:20 | 18.55733 | -74.78869 | 33995 ft | 494 kts | 87° |
| 2026-05-05 23:20 | 18.55608 | -74.71647 | 33994 ft | 494 kts | 87° |
| 2026-05-05 23:21 | 18.55480 | -74.64394 | 33994 ft | 494 kts | 87° |
| 2026-05-05 23:21 | 18.55349 | -74.57111 | 33992 ft | 493 kts | 87° |
| 2026-05-05 23:22 | 18.55217 | -74.49946 | 33988 ft | 492 kts | 87° |
| 2026-05-05 23:22 | 18.55082 | -74.42738 | 33987 ft | 492 kts | 87° |
| 2026-05-05 23:23 | 18.54942 | -74.35456 | 33987 ft | 492 kts | 87° |
| 2026-05-05 23:23 | 18.54802 | -74.28232 | 33990 ft | 495 kts | 87° |
| 2026-05-05 23:24 | 18.54658 | -74.20991 | 33993 ft | 497 kts | 87° |
| 2026-05-05 23:24 | 18.54509 | -74.13736 | 33992 ft | 496 kts | 87° |
| 2026-05-05 23:25 | 18.54359 | -74.06472 | 33991 ft | 495 kts | 87° |
| 2026-05-05 23:25 | 18.54204 | -73.99083 | 33991 ft | 497 kts | 88° |
| 2026-05-05 23:26 | 18.54047 | -73.91791 | 33990 ft | 497 kts | 88° |
| 2026-05-05 23:26 | 18.53896 | -73.84888 | 33990 ft | 497 kts | 88° |
| 2026-05-05 23:27 | 18.53735 | -73.77586 | 33982 ft | 496 kts | 88° |
| 2026-05-05 23:27 | 18.53570 | -73.70309 | 33977 ft | 496 kts | 88° |
| 2026-05-05 23:28 | 18.53402 | -73.63043 | 33976 ft | 496 kts | 88° |
| 2026-05-05 23:28 | 18.53233 | -73.55819 | 33975 ft | 496 kts | 88° |
| 2026-05-05 23:29 | 18.53065 | -73.48429 | 33996 ft | 502 kts | 88° |
| 2026-05-05 23:29 | 18.52880 | -73.41040 | 34003 ft | 507 kts | 88° |
| 2026-05-05 23:30 | 18.52727 | -73.34849 | 34003 ft | 508 kts | 88° |
| 2026-05-05 23:30 | 18.52511 | -73.26158 | 34001 ft | 508 kts | 88° |
| 2026-05-05 23:31 | 18.52354 | -73.19970 | 34001 ft | 508 kts | 88° |
| 2026-05-05 23:31 | 18.52163 | -73.12521 | 34002 ft | 508 kts | 89° |
| 2026-05-05 23:32 | 18.51967 | -73.04982 | 33999 ft | 507 kts | 89° |
| 2026-05-05 23:32 | 18.51770 | -72.97539 | 33999 ft | 507 kts | 89° |
| 2026-05-05 23:33 | 18.51569 | -72.90064 | 33999 ft | 507 kts | 89° |
| 2026-05-05 23:33 | 18.51361 | -72.82416 | 33997 ft | 507 kts | 89° |
| 2026-05-05 23:34 | 18.51150 | -72.74772 | 33996 ft | 507 kts | 89° |
| 2026-05-05 23:34 | 18.50939 | -72.67276 | 33996 ft | 507 kts | 89° |
| 2026-05-05 23:35 | 18.50719 | -72.59522 | 33994 ft | 507 kts | 89° |
| 2026-05-05 23:35 | 18.50508 | -72.52226 | 33994 ft | 507 kts | 89° |
| 2026-05-05 23:36 | 18.50290 | -72.44757 | 33994 ft | 507 kts | 89° |
| 2026-05-05 23:36 | 18.50097 | -72.38227 | 33993 ft | 507 kts | 89° |
| 2026-05-05 23:37 | 18.49873 | -72.30751 | 33993 ft | 507 kts | 89° |
| 2026-05-05 23:37 | 18.49651 | -72.23453 | 33993 ft | 507 kts | 89° |
| 2026-05-05 23:38 | 18.49417 | -72.15852 | 33993 ft | 507 kts | 89° |
| 2026-05-05 23:38 | 18.49181 | -72.08271 | 33993 ft | 507 kts | 89° |
| 2026-05-05 23:39 | 18.48950 | -72.00949 | 33993 ft | 507 kts | 89° |
| 2026-05-05 23:39 | 18.48711 | -71.93474 | 33993 ft | 507 kts | 89° |
| 2026-05-05 23:40 | 18.48471 | -71.86045 | 33993 ft | 507 kts | 89° |
| 2026-05-05 23:40 | 18.48230 | -71.78675 | 33993 ft | 507 kts | 89° |
| 2026-05-05 23:41 | 18.47984 | -71.71252 | 33993 ft | 507 kts | 89° |
| 2026-05-05 23:41 | 18.47735 | -71.63831 | 33993 ft | 507 kts | 89° |
| 2026-05-05 23:42 | 18.47484 | -71.56400 | 33993 ft | 507 kts | 89° |
| 2026-05-05 23:42 | 18.47229 | -71.48975 | 33993 ft | 507 kts | 89° |
| 2026-05-05 23:43 | 18.46972 | -71.41551 | 33993 ft | 507 kts | 89° |
| 2026-05-05 23:43 | 18.46709 | -71.34074 | 33993 ft | 507 kts | 89° |
| 2026-05-05 23:44 | 18.46445 | -71.26610 | 33993 ft | 507 kts | 89° |
| 2026-05-05 23:44 | 18.46179 | -71.19201 | 33994 ft | 507 kts | 89° |
| 2026-05-05 23:45 | 18.45910 | -71.11765 | 33995 ft | 507 kts | 89° |
| 2026-05-05 23:45 | 18.45636 | -71.04296 | 33996 ft | 507 kts | 89° |
| 2026-05-05 23:46 | 18.45359 | -70.96841 | 33993 ft | 507 kts | 89° |
| 2026-05-05 23:46 | 18.45123 | -70.90503 | 33993 ft | 507 kts | 89° |
| 2026-05-05 23:47 | 18.44834 | -70.82849 | 33995 ft | 507 kts | 89° |
| 2026-05-05 23:47 | 18.44538 | -70.75105 | 33994 ft | 507 kts | 89° |
| 2026-05-05 23:48 | 18.44250 | -70.67622 | 33993 ft | 507 kts | 89° |
| 2026-05-05 23:48 | 18.43961 | -70.60216 | 33993 ft | 507 kts | 89° |
| 2026-05-05 23:49 | 18.43668 | -70.52759 | 33993 ft | 507 kts | 89° |
| 2026-05-05 23:49 | 18.43373 | -70.45334 | 33993 ft | 507 kts | 89° |
| 2026-05-05 23:50 | 18.43082 | -70.37909 | 34026 ft | 509 kts | 90° |
| 2026-05-05 23:50 | 18.42773 | -70.30417 | 34042 ft | 510 kts | 90° |
| 2026-05-05 23:51 | 18.42464 | -70.22895 | 34051 ft | 511 kts | 90° |
| 2026-05-05 23:51 | 18.42155 | -70.15421 | 34052 ft | 511 kts | 90° |
| 2026-05-05 23:52 | 18.41840 | -70.07869 | 34052 ft | 511 kts | 90° |
| 2026-05-05 23:52 | 18.41520 | -70.00275 | 34052 ft | 511 kts | 90° |
| 2026-05-05 23:53 | 18.41256 | -69.94061 | 34052 ft | 511 kts | 90° |
| 2026-05-05 23:53 | 18.40930 | -69.86457 | 34052 ft | 511 kts | 90° |
| 2026-05-05 23:54 | 18.40607 | -69.78977 | 34052 ft | 511 kts | 90° |
| 2026-05-05 23:54 | 18.40280 | -69.71489 | 34052 ft | 511 kts | 90° |
| 2026-05-05 23:55 | 18.39951 | -69.64008 | 34052 ft | 511 kts | 90° |
| 2026-05-05 23:55 | 18.39616 | -69.56465 | 34052 ft | 511 kts | 90° |
| 2026-05-05 23:56 | 18.39280 | -69.48979 | 34052 ft | 511 kts | 90° |
| 2026-05-05 23:56 | 18.38942 | -69.41489 | 34052 ft | 511 kts | 90° |
| 2026-05-05 23:57 | 18.38601 | -69.34007 | 34052 ft | 511 kts | 91° |
| 2026-05-05 23:57 | 18.38242 | -69.26223 | 34052 ft | 511 kts | 91° |
| 2026-05-05 23:58 | 18.37895 | -69.18736 | 34052 ft | 512 kts | 91° |
| 2026-05-05 23:58 | 18.37543 | -69.11194 | 34052 ft | 512 kts | 91° |
| 2026-05-05 23:59 | 18.37189 | -69.03707 | 34053 ft | 512 kts | 91° |
| 2026-05-05 23:59 | 18.36833 | -68.96229 | 34053 ft | 512 kts | 91° |
| 2026-05-06 00:00 | 18.36475 | -68.88754 | 34053 ft | 512 kts | 91° |
| 2026-05-06 00:00 | 18.36114 | -68.81276 | 34054 ft | 512 kts | 91° |
| 2026-05-06 00:01 | 18.35748 | -68.73797 | 34055 ft | 512 kts | 91° |
| 2026-05-06 00:01 | 18.35381 | -68.66320 | 34056 ft | 511 kts | 91° |
| 2026-05-06 00:02 | 18.35016 | -68.58832 | 34065 ft | 510 kts | 92° |
| 2026-05-06 00:02 | 18.34638 | -68.51372 | 34069 ft | 510 kts | 92° |
| 2026-05-06 00:03 | 18.34263 | -68.43924 | 34069 ft | 510 kts | 92° |
| 2026-05-06 00:03 | 18.33885 | -68.36422 | 34074 ft | 509 kts | 92° |
| 2026-05-06 00:04 | 18.33505 | -68.29038 | 34076 ft | 508 kts | 92° |
| 2026-05-06 00:04 | 18.33125 | -68.21649 | 34077 ft | 508 kts | 92° |
| 2026-05-06 00:05 | 18.32643 | -68.12402 | 34076 ft | 508 kts | 92° |
| 2026-05-06 00:06 | 18.32312 | -68.06058 | 34076 ft | 508 kts | 92° |
| 2026-05-06 00:06 | 18.31979 | -67.99737 | 34076 ft | 508 kts | 93° |
| 2026-05-06 00:07 | 18.31571 | -67.92089 | 34074 ft | 508 kts | 92° |
| 2026-05-06 00:07 | 18.31183 | -67.84808 | 34074 ft | 509 kts | 92° |
| 2026-05-06 00:08 | 18.30783 | -67.77358 | 34074 ft | 509 kts | 92° |
| 2026-05-06 00:08 | 18.30379 | -67.69927 | 34073 ft | 509 kts | 92° |
| 2026-05-06 00:09 | 18.29970 | -67.62436 | 34072 ft | 509 kts | 92° |
| 2026-05-06 00:09 | 18.29562 | -67.54990 | 34072 ft | 509 kts | 92° |
| 2026-05-06 00:10 | 18.29149 | -67.47546 | 34070 ft | 512 kts | 92° |
| 2026-05-06 00:10 | 18.28732 | -67.40065 | 34064 ft | 512 kts | 92° |
| 2026-05-06 00:11 | 18.28329 | -67.32607 | 34078 ft | 510 kts | 95° |
| 2026-05-06 00:11 | 18.27870 | -67.25149 | 34071 ft | 512 kts | 93° |
| 2026-05-06 00:12 | 18.27462 | -67.17658 | 34062 ft | 512 kts | 92° |
| 2026-05-06 00:12 | 18.27041 | -67.10179 | 34066 ft | 513 kts | 92° |
| 2026-05-06 00:13 | 18.26603 | -67.02667 | 34069 ft | 513 kts | 93° |
| 2026-05-06 00:13 | 18.26174 | -66.95192 | 34081 ft | 512 kts | 94° |
| 2026-05-06 00:14 | 18.25730 | -66.87717 | 34083 ft | 512 kts | 94° |
| 2026-05-06 00:14 | 18.25294 | -66.80270 | 34086 ft | 511 kts | 94° |
| 2026-05-06 00:15 | 18.24867 | -66.72863 | 33645 ft | 501 kts | 96° |
| 2026-05-06 00:15 | 18.24634 | -66.69215 | 33192 ft | 494 kts | 96° |
| 2026-05-06 00:15 | 18.24418 | -66.65626 | 32740 ft | 487 kts | 96° |
| 2026-05-06 00:15 | 18.24218 | -66.62148 | 32297 ft | 478 kts | 96° |
| 2026-05-06 00:16 | 18.23979 | -66.58717 | 31978 ft | 467 kts | 93° |
| 2026-05-06 00:16 | 18.23769 | -66.55326 | 31525 ft | 459 kts | 92° |
| 2026-05-06 00:16 | 18.23599 | -66.51993 | 31071 ft | 456 kts | 92° |
| 2026-05-06 00:16 | 18.23398 | -66.48672 | 30617 ft | 450 kts | 92° |
| 2026-05-06 00:17 | 18.23192 | -66.45414 | 30168 ft | 442 kts | 91° |
| 2026-05-06 00:17 | 18.22996 | -66.42210 | 29716 ft | 436 kts | 91° |
| 2026-05-06 00:17 | 18.22805 | -66.39039 | 29266 ft | 434 kts | 91° |
| 2026-05-06 00:17 | 18.22614 | -66.35920 | 28822 ft | 433 kts | 91° |
| 2026-05-06 00:18 | 18.22417 | -66.32711 | 28365 ft | 434 kts | 91° |
| 2026-05-06 00:18 | 18.22223 | -66.29571 | 27920 ft | 435 kts | 91° |
| 2026-05-06 00:18 | 18.22024 | -66.26292 | 27469 ft | 456 kts | 91° |
| 2026-05-06 00:18 | 18.21818 | -66.22884 | 27018 ft | 476 kts | 92° |
| 2026-05-06 00:19 | 18.21597 | -66.19318 | 26562 ft | 486 kts | 92° |
| 2026-05-06 00:19 | 18.21367 | -66.15652 | 26100 ft | 494 kts | 92° |
| 2026-05-06 00:19 | 18.21130 | -66.11878 | 25631 ft | 499 kts | 92° |
| 2026-05-06 00:19 | 18.20973 | -66.09369 | 25322 ft | 501 kts | 92° |
| 2026-05-06 00:20 | 18.20725 | -66.05435 | 24839 ft | 504 kts | 92° |
| 2026-05-06 00:20 | 18.20478 | -66.01524 | 24360 ft | 505 kts | 93° |
| 2026-05-06 00:20 | 18.20238 | -65.97840 | 24135 ft | 504 kts | 93° |
| 2026-05-06 00:20 | 18.20005 | -65.94168 | 24256 ft | 493 kts | 93° |
| 2026-05-06 00:21 | 18.19779 | -65.90566 | 23823 ft | 480 kts | 93° |
| 2026-05-06 00:21 | 18.19564 | -65.87159 | 23378 ft | 466 kts | 93° |
| 2026-05-06 00:21 | 18.19349 | -65.83791 | 22927 ft | 458 kts | 93° |
| 2026-05-06 00:21 | 18.19132 | -65.80420 | 22470 ft | 454 kts | 93° |
| 2026-05-06 00:22 | 18.18920 | -65.77124 | 22020 ft | 451 kts | 93° |
| 2026-05-06 00:22 | 18.18710 | -65.73876 | 21576 ft | 451 kts | 93° |
| 2026-05-06 00:22 | 18.18493 | -65.70537 | 21118 ft | 451 kts | 94° |
| 2026-05-06 00:22 | 18.18280 | -65.67249 | 20667 ft | 450 kts | 94° |
| 2026-05-06 00:23 | 18.18066 | -65.63969 | 20284 ft | 450 kts | 94° |
| 2026-05-06 00:23 | 18.17854 | -65.60725 | 20157 ft | 452 kts | 94° |
| 2026-05-06 00:23 | 18.17636 | -65.57402 | 20124 ft | 455 kts | 94° |
| 2026-05-06 00:23 | 18.17468 | -65.54842 | 20116 ft | 457 kts | 94° |
| 2026-05-06 00:24 | 18.17220 | -65.51060 | 20112 ft | 459 kts | 94° |
| 2026-05-06 00:24 | 18.17000 | -65.47735 | 20111 ft | 460 kts | 94° |
| 2026-05-06 00:24 | 18.16773 | -65.44295 | 20111 ft | 461 kts | 94° |
| 2026-05-06 00:24 | 18.16560 | -65.41093 | 20111 ft | 461 kts | 94° |
| 2026-05-06 00:25 | 18.16322 | -65.37509 | 20111 ft | 461 kts | 94° |
| 2026-05-06 00:25 | 18.16088 | -65.34003 | 20111 ft | 462 kts | 94° |
| 2026-05-06 00:25 | 18.15867 | -65.30702 | 20111 ft | 462 kts | 94° |
| 2026-05-06 00:25 | 18.15640 | -65.27299 | 20111 ft | 462 kts | 94° |
| 2026-05-06 00:26 | 18.15414 | -65.23934 | 20111 ft | 462 kts | 94° |
| 2026-05-06 00:26 | 18.15185 | -65.20538 | 20111 ft | 462 kts | 94° |
| 2026-05-06 00:26 | 18.14958 | -65.17175 | 20111 ft | 462 kts | 94° |
| 2026-05-06 00:26 | 18.14729 | -65.13804 | 20111 ft | 462 kts | 94° |
| 2026-05-06 00:27 | 18.14500 | -65.10426 | 20111 ft | 462 kts | 94° |
| 2026-05-06 00:27 | 18.14267 | -65.07007 | 20111 ft | 462 kts | 94° |
| 2026-05-06 00:27 | 18.14008 | -65.03684 | 20111 ft | 462 kts | 95° |
| 2026-05-06 00:27 | 18.13662 | -65.00315 | 20111 ft | 462 kts | 95° |
| 2026-05-06 00:28 | 18.13389 | -64.96949 | 20111 ft | 462 kts | 94° |
| 2026-05-06 00:28 | 18.13177 | -64.93575 | 20111 ft | 462 kts | 93° |
| 2026-05-06 00:28 | 18.12962 | -64.90198 | 20111 ft | 462 kts | 94° |
| 2026-05-06 00:28 | 18.12733 | -64.86830 | 20111 ft | 462 kts | 94° |
| 2026-05-06 00:29 | 18.12501 | -64.83467 | 20111 ft | 462 kts | 94° |
| 2026-05-06 00:29 | 18.12267 | -64.80094 | 20111 ft | 462 kts | 94° |
| 2026-05-06 00:29 | 18.12037 | -64.76716 | 20111 ft | 462 kts | 94° |
| 2026-05-06 00:29 | 18.11807 | -64.73346 | 20111 ft | 462 kts | 94° |
| 2026-05-06 00:30 | 18.11575 | -64.69981 | 20111 ft | 462 kts | 94° |
| 2026-05-06 00:30 | 18.11343 | -64.66606 | 20111 ft | 462 kts | 94° |
| 2026-05-06 00:30 | 18.11110 | -64.63242 | 20111 ft | 462 kts | 94° |
| 2026-05-06 00:30 | 18.10875 | -64.59881 | 20111 ft | 462 kts | 94° |
| 2026-05-06 00:31 | 18.10640 | -64.56549 | 20111 ft | 462 kts | 94° |
| 2026-05-06 00:31 | 18.10405 | -64.53149 | 20111 ft | 462 kts | 94° |
| 2026-05-06 00:31 | 18.10166 | -64.49773 | 20111 ft | 463 kts | 94° |
| 2026-05-06 00:31 | 18.09932 | -64.46395 | 19929 ft | 463 kts | 94° |
| 2026-05-06 00:32 | 18.09700 | -64.43042 | 19505 ft | 459 kts | 94° |
| 2026-05-06 00:32 | 18.09470 | -64.39739 | 19078 ft | 445 kts | 94° |
| 2026-05-06 00:32 | 18.09243 | -64.36517 | 18650 ft | 436 kts | 94° |
| 2026-05-06 00:32 | 18.09019 | -64.33365 | 18225 ft | 432 kts | 94° |
| 2026-05-06 00:33 | 18.08799 | -64.30265 | 17805 ft | 429 kts | 94° |
| 2026-05-06 00:33 | 18.08577 | -64.27126 | 17377 ft | 428 kts | 94° |
| 2026-05-06 00:33 | 18.08358 | -64.24022 | 16953 ft | 427 kts | 94° |
| 2026-05-06 00:33 | 18.08137 | -64.20893 | 16526 ft | 427 kts | 94° |
| 2026-05-06 00:34 | 18.07917 | -64.17795 | 16102 ft | 428 kts | 95° |
| 2026-05-06 00:34 | 18.07694 | -64.14655 | 15673 ft | 427 kts | 95° |
| 2026-05-06 00:34 | 18.07473 | -64.11545 | 15248 ft | 427 kts | 95° |
| 2026-05-06 00:34 | 18.07252 | -64.08431 | 14821 ft | 426 kts | 95° |
| 2026-05-06 00:35 | 18.07105 | -64.06376 | 14539 ft | 425 kts | 95° |
| 2026-05-06 00:35 | 18.06818 | -64.02373 | 13974 ft | 407 kts | 95° |
| 2026-05-06 00:35 | 18.06603 | -63.99438 | 13547 ft | 397 kts | 95° |
| 2026-05-06 00:35 | 18.06393 | -63.96561 | 13120 ft | 392 kts | 95° |
| 2026-05-06 00:36 | 18.06253 | -63.94636 | 12832 ft | 389 kts | 95° |
| 2026-05-06 00:36 | 18.06048 | -63.91801 | 12406 ft | 388 kts | 95° |
| 2026-05-06 00:36 | 18.05845 | -63.88983 | 11981 ft | 388 kts | 95° |
| 2026-05-06 00:36 | 18.05641 | -63.86157 | 11555 ft | 387 kts | 94° |
| 2026-05-06 00:37 | 18.05437 | -63.83332 | 11130 ft | 388 kts | 94° |
| 2026-05-06 00:37 | 18.05233 | -63.80499 | 10703 ft | 388 kts | 94° |
| 2026-05-06 00:37 | 18.05031 | -63.77700 | 10283 ft | 390 kts | 94° |
| 2026-05-06 00:37 | 18.04827 | -63.74861 | 9857 ft | 389 kts | 95° |
| 2026-05-06 00:38 | 18.04620 | -63.72031 | 9433 ft | 389 kts | 95° |
| 2026-05-06 00:38 | 18.04413 | -63.69193 | 9007 ft | 389 kts | 95° |
| 2026-05-06 00:38 | 18.04205 | -63.66362 | 8639 ft | 388 kts | 95° |
| 2026-05-06 00:38 | 18.04001 | -63.63575 | 8228 ft | 373 kts | 95° |
| 2026-05-06 00:39 | 18.03802 | -63.60885 | 7803 ft | 367 kts | 95° |
| 2026-05-06 00:39 | 18.03606 | -63.58224 | 7377 ft | 364 kts | 95° |
| 2026-05-06 00:39 | 18.03410 | -63.55574 | 6951 ft | 362 kts | 95° |
| 2026-05-06 00:39 | 18.03216 | -63.52943 | 6526 ft | 361 kts | 95° |
| 2026-05-06 00:40 | 18.03021 | -63.50301 | 6099 ft | 361 kts | 95° |
| 2026-05-06 00:40 | 18.02827 | -63.47679 | 5675 ft | 361 kts | 95° |
| 2026-05-06 00:40 | 18.02633 | -63.45057 | 5250 ft | 360 kts | 95° |
| 2026-05-06 00:40 | 18.02444 | -63.42505 | 4824 ft | 341 kts | 95° |
| 2026-05-06 00:41 | 18.02264 | -63.40067 | 4392 ft | 320 kts | 95° |
| 2026-05-06 00:41 | 18.02098 | -63.37837 | 3972 ft | 302 kts | 96° |
| 2026-05-06 00:41 | 18.01938 | -63.35692 | 3546 ft | 287 kts | 96° |
| 2026-05-06 00:41 | 18.01786 | -63.33650 | 3119 ft | 274 kts | 96° |
| 2026-05-06 00:42 | 18.01640 | -63.31696 | 2693 ft | 263 kts | 96° |
| 2026-05-06 00:42 | 18.01586 | -63.29817 | 2300 ft | 254 kts | 90° |
| 2026-05-06 00:42 | 18.01736 | -63.27983 | 2156 ft | 248 kts | 86° |
| 2026-05-06 00:42 | 18.01934 | -63.26245 | 2116 ft | 231 kts | 85° |
| 2026-05-06 00:43 | 18.02130 | -63.24645 | 2106 ft | 208 kts | 85° |
| 2026-05-06 00:43 | 18.02313 | -63.23206 | 2108 ft | 191 kts | 85° |
| 2026-05-06 00:43 | 18.02486 | -63.21863 | 2121 ft | 177 kts | 85° |
| 2026-05-06 00:43 | 18.02638 | -63.20662 | 2108 ft | 157 kts | 86° |
| 2026-05-06 00:44 | 18.02797 | -63.19568 | 1851 ft | 147 kts | 85° |
| 2026-05-06 00:44 | 18.02955 | -63.18504 | 1648 ft | 143 kts | 85° |
| 2026-05-06 00:44 | 18.03106 | -63.17493 | 1437 ft | 140 kts | 84° |
| 2026-05-06 00:44 | 18.03257 | -63.16483 | 1228 ft | 139 kts | 84° |
| 2026-05-06 00:45 | 18.03426 | -63.15487 | 1021 ft | 139 kts | 82° |
| 2026-05-06 00:45 | 18.03585 | -63.14491 | 747 ft | 138 kts | 83° |
| 2026-05-06 00:45 | 18.03725 | -63.13493 | 376 ft | 138 kts | 83° |
| 2026-05-06 00:45 | 18.03857 | -63.12497 | 122 ft | 137 kts | 81° |
| 2026-05-06 00:46 | 18.03999 | -63.11550 | 28 ft | 114 kts | 82° |
| 2026-05-06 00:46 | 18.04066 | -63.11039 | 28 ft | 35 kts | 71° |
| 2026-05-06 00:46 | 18.04180 | -63.11003 | 28 ft | 10 kts | 18° |
| 2026-05-06 00:46 | 18.04194 | -63.10982 | 28 ft | 5 kts | 79° |
| 2026-05-06 00:47 | 18.04195 | -63.10967 | 28 ft | 0 kts | 84° |
| 2026-05-06 00:47 | 18.04196 | -63.10967 | 28 ft | 0 kts | 84° |